createdAt,value
2023-01-17T00:00:58.699Z,0.00
2023-01-17T00:01:58.430Z,0.00
2023-01-17T00:02:58.555Z,0.00
2023-01-17T00:03:58.625Z,0.00
2023-01-17T00:04:58.652Z,0.00
2023-01-17T00:05:58.397Z,0.00
2023-01-17T00:06:58.478Z,0.00
2023-01-17T00:07:58.514Z,0.00
2023-01-17T00:08:58.586Z,0.00
2023-01-17T00:09:58.660Z,0.00
2023-01-17T00:10:58.698Z,0.00
2023-01-17T00:11:58.749Z,0.00
2023-01-17T00:12:58.473Z,0.00
2023-01-17T00:13:58.866Z,0.00
2023-01-17T00:14:58.931Z,0.00
2023-01-17T00:15:59.018Z,0.00
2023-01-17T00:16:58.307Z,0.00
2023-01-17T00:17:58.277Z,0.00
2023-01-17T00:18:58.357Z,0.00
2023-01-17T00:19:58.391Z,0.00
2023-01-17T00:20:58.427Z,0.00
2023-01-17T00:21:58.487Z,0.00
2023-01-17T00:22:58.636Z,0.00
2023-01-17T00:23:58.593Z,0.00
2023-01-17T00:24:58.862Z,0.00
2023-01-17T00:25:58.745Z,0.00
2023-01-17T00:26:58.213Z,0.00
2023-01-17T00:27:58.834Z,0.00
2023-01-17T00:28:58.855Z,0.00
2023-01-17T00:29:58.970Z,0.00
2023-01-17T00:30:58.936Z,0.00
2023-01-17T00:31:59.095Z,0.00
2023-01-17T00:32:58.479Z,0.00
2023-01-17T00:33:58.883Z,0.00
2023-01-17T00:34:58.787Z,0.00
2023-01-17T00:35:58.961Z,0.00
2023-01-17T00:36:58.204Z,0.00
2023-01-17T00:37:58.025Z,0.00
2023-01-17T00:38:58.664Z,0.00
2023-01-17T00:39:59.175Z,0.00
2023-01-17T00:40:58.725Z,0.00
2023-01-17T00:41:58.027Z,0.00
2023-01-17T00:42:57.921Z,0.00
2023-01-17T00:43:58.708Z,0.00
2023-01-17T00:44:58.855Z,0.00
2023-01-17T00:45:57.861Z,0.00
2023-01-17T00:46:57.908Z,0.00
2023-01-17T00:47:57.952Z,0.00
2023-01-17T00:48:58.015Z,0.00
2023-01-17T00:49:58.054Z,0.00
2023-01-17T00:50:58.116Z,0.00
2023-01-17T00:51:58.176Z,0.00
2023-01-17T00:52:58.232Z,0.00
2023-01-17T00:53:58.328Z,0.00
2023-01-17T00:54:58.356Z,0.00
2023-01-17T00:55:58.439Z,0.00
2023-01-17T00:56:58.229Z,0.00
2023-01-17T00:57:58.513Z,0.00
2023-01-17T00:58:58.531Z,0.00
2023-01-17T00:59:57.750Z,0.00
2023-01-17T01:00:58.185Z,0.00
2023-01-17T01:01:58.712Z,0.00
2023-01-17T01:02:57.901Z,0.00
2023-01-17T01:03:58.850Z,0.00
2023-01-17T01:04:58.998Z,0.00
2023-01-17T01:05:58.370Z,0.00
2023-01-17T01:06:57.620Z,0.00
2023-01-17T01:07:58.445Z,0.00
2023-01-17T01:08:58.112Z,0.00
2023-01-17T01:09:58.531Z,0.00
2023-01-17T01:10:58.128Z,0.00
2023-01-17T01:11:58.309Z,0.00
2023-01-17T01:12:58.028Z,0.00
2023-01-17T01:13:58.368Z,0.00
2023-01-17T01:14:57.493Z,0.00
2023-01-17T01:15:57.573Z,0.00
2023-01-17T01:16:57.516Z,0.00
2023-01-17T01:17:57.647Z,0.00
2023-01-17T01:18:57.695Z,0.00
2023-01-17T01:19:57.425Z,0.00
2023-01-17T01:20:57.479Z,0.00
2023-01-17T01:21:59.329Z,0.00
2023-01-17T01:22:57.407Z,0.00
2023-01-17T01:23:57.407Z,0.00
2023-01-17T01:24:57.411Z,0.00
2023-01-17T01:25:57.346Z,0.00
2023-01-17T01:26:58.136Z,0.00
2023-01-17T01:27:57.406Z,0.00
2023-01-17T01:28:57.407Z,0.00
2023-01-17T01:29:57.437Z,0.00
2023-01-17T01:30:57.408Z,0.00
2023-01-17T01:31:57.436Z,0.00
2023-01-17T01:32:57.405Z,0.00
2023-01-17T01:33:57.421Z,0.00
2023-01-17T01:34:57.429Z,0.00
2023-01-17T01:35:57.416Z,0.00
2023-01-17T01:36:57.229Z,0.00
2023-01-17T01:37:57.200Z,0.00
2023-01-17T01:38:57.416Z,0.00
2023-01-17T01:39:57.363Z,0.00
2023-01-17T01:40:57.413Z,0.00
2023-01-17T01:41:57.505Z,0.00
2023-01-17T01:42:57.147Z,0.00
2023-01-17T01:43:57.125Z,0.00
2023-01-17T01:44:57.145Z,0.00
2023-01-17T01:45:57.295Z,0.00
2023-01-17T01:46:57.204Z,0.00
2023-01-17T01:47:57.319Z,0.00
2023-01-17T01:48:57.375Z,0.00
2023-01-17T01:49:57.413Z,0.00
2023-01-17T01:50:57.410Z,0.00
2023-01-17T01:51:57.421Z,0.00
2023-01-17T01:52:57.403Z,0.00
2023-01-17T01:53:57.474Z,0.00
2023-01-17T01:54:57.417Z,0.00
2023-01-17T01:55:57.492Z,0.00
2023-01-17T01:56:57.308Z,0.00
2023-01-17T01:57:57.417Z,0.00
2023-01-17T01:58:57.013Z,0.00
2023-01-17T01:59:57.423Z,0.00
2023-01-17T02:00:57.598Z,0.00
2023-01-17T02:01:57.446Z,0.00
2023-01-17T02:02:56.986Z,0.00
2023-01-17T02:03:57.436Z,0.00
2023-01-17T02:04:57.442Z,0.00
2023-01-17T02:05:57.421Z,0.00
2023-01-17T02:06:57.203Z,0.00
2023-01-17T02:07:57.410Z,0.00
2023-01-17T02:08:57.408Z,0.00
2023-01-17T02:09:57.420Z,0.00
2023-01-17T02:10:57.410Z,0.00
2023-01-17T02:11:57.411Z,0.00
2023-01-17T02:12:56.758Z,0.00
2023-01-17T02:13:56.869Z,0.00
2023-01-17T02:14:56.839Z,0.00
2023-01-17T02:15:57.010Z,0.00
2023-01-17T02:16:56.705Z,0.00
2023-01-17T02:17:56.689Z,0.00
2023-01-17T02:18:56.729Z,0.00
2023-01-17T02:19:56.778Z,0.00
2023-01-17T02:20:56.650Z,0.00
2023-01-17T02:21:56.619Z,0.00
2023-01-17T02:22:56.648Z,0.00
2023-01-17T02:23:56.708Z,0.00
2023-01-17T02:24:56.770Z,0.00
2023-01-17T02:25:56.829Z,0.00
2023-01-17T02:26:56.668Z,0.00
2023-01-17T02:27:56.564Z,0.00
2023-01-17T02:28:56.647Z,0.00
2023-01-17T02:29:56.558Z,0.00
2023-01-17T02:30:56.836Z,0.00
2023-01-17T02:31:56.899Z,0.00
2023-01-17T02:32:56.531Z,0.00
2023-01-17T02:33:56.977Z,0.00
2023-01-17T02:34:57.036Z,0.00
2023-01-17T02:35:57.100Z,0.00
2023-01-17T02:36:57.147Z,0.00
2023-01-17T02:37:56.657Z,0.00
2023-01-17T02:38:57.305Z,0.00
2023-01-17T02:39:56.516Z,0.00
2023-01-17T02:40:57.209Z,0.00
2023-01-17T02:41:56.402Z,0.00
2023-01-17T02:42:56.448Z,0.00
2023-01-17T02:43:56.523Z,0.00
2023-01-17T02:44:56.569Z,0.00
2023-01-17T02:45:56.662Z,0.00
2023-01-17T02:46:56.675Z,0.00
2023-01-17T02:47:56.738Z,0.00
2023-01-17T02:48:56.791Z,0.00
2023-01-17T02:49:56.824Z,0.00
2023-01-17T02:50:56.897Z,0.00
2023-01-17T02:51:56.236Z,0.00
2023-01-17T02:52:56.994Z,0.00
2023-01-17T02:53:57.059Z,0.00
2023-01-17T02:54:56.564Z,0.00
2023-01-17T02:55:57.029Z,0.00
2023-01-17T02:56:56.185Z,0.00
2023-01-17T02:57:57.106Z,0.00
2023-01-17T02:58:57.211Z,0.00
2023-01-17T02:59:57.237Z,0.00
2023-01-17T03:00:56.242Z,0.00
2023-01-17T03:01:57.157Z,0.00
2023-01-17T03:02:56.882Z,0.00
2023-01-17T03:03:56.307Z,0.00
2023-01-17T03:04:56.933Z,0.00
2023-01-17T03:05:56.152Z,0.00
2023-01-17T03:06:56.940Z,0.00
2023-01-17T03:07:56.901Z,0.00
2023-01-17T03:08:56.808Z,0.00
2023-01-17T03:09:56.703Z,0.00
2023-01-17T03:10:56.003Z,0.00
2023-01-17T03:11:56.056Z,0.00
2023-01-17T03:12:56.122Z,0.00
2023-01-17T03:13:56.243Z,0.00
2023-01-17T03:14:56.243Z,0.00
2023-01-17T03:15:56.030Z,0.00
2023-01-17T03:16:56.518Z,0.00
2023-01-17T03:17:56.533Z,0.00
2023-01-17T03:18:56.635Z,0.00
2023-01-17T03:19:56.632Z,0.00
2023-01-17T03:20:56.669Z,0.00
2023-01-17T03:21:56.819Z,0.00
2023-01-17T03:22:56.753Z,0.00
2023-01-17T03:23:56.647Z,0.00
2023-01-17T03:24:56.919Z,0.00
2023-01-17T03:25:56.713Z,0.00
2023-01-17T03:26:56.669Z,0.00
2023-01-17T03:27:56.525Z,0.00
2023-01-17T03:28:56.682Z,0.00
2023-01-17T03:29:56.040Z,0.00
2023-01-17T03:30:56.573Z,0.00
2023-01-17T03:31:56.652Z,0.00
2023-01-17T03:32:56.554Z,0.00
2023-01-17T03:33:56.454Z,0.00
2023-01-17T03:34:56.625Z,0.00
2023-01-17T03:35:55.675Z,0.00
2023-01-17T03:36:55.708Z,0.00
2023-01-17T03:37:55.648Z,0.00
2023-01-17T03:38:55.803Z,0.00
2023-01-17T03:39:55.846Z,0.00
2023-01-17T03:40:55.915Z,0.00
2023-01-17T03:41:55.968Z,0.00
2023-01-17T03:42:56.032Z,0.00
2023-01-17T03:43:56.126Z,0.00
2023-01-17T03:44:56.244Z,0.00
2023-01-17T03:45:56.228Z,0.00
2023-01-17T03:46:56.027Z,0.00
2023-01-17T03:47:56.310Z,0.00
2023-01-17T03:48:56.313Z,0.00
2023-01-17T03:49:56.196Z,0.00
2023-01-17T03:50:55.935Z,0.00
2023-01-17T03:51:56.257Z,0.00
2023-01-17T03:52:56.414Z,0.00
2023-01-17T03:53:56.326Z,0.00
2023-01-17T03:54:55.466Z,0.00
2023-01-17T03:55:56.817Z,0.00
2023-01-17T03:56:56.293Z,0.00
2023-01-17T03:57:56.207Z,0.00
2023-01-17T03:58:56.103Z,0.00
2023-01-17T03:59:56.282Z,0.00
2023-01-17T04:00:56.092Z,0.00
2023-01-17T04:01:56.090Z,0.00
2023-01-17T04:02:56.079Z,0.00
2023-01-17T04:03:56.145Z,0.00
2023-01-17T04:04:55.345Z,0.00
2023-01-17T04:05:55.350Z,0.00
2023-01-17T04:06:55.379Z,0.00
2023-01-17T04:07:55.431Z,0.00
2023-01-17T04:08:55.472Z,0.00
2023-01-17T04:09:55.559Z,0.00
2023-01-17T04:10:55.588Z,0.00
2023-01-17T04:11:55.657Z,0.00
2023-01-17T04:12:55.700Z,0.00
2023-01-17T04:13:55.764Z,0.00
2023-01-17T04:14:55.201Z,0.00
2023-01-17T04:15:55.921Z,0.00
2023-01-17T04:16:55.184Z,0.00
2023-01-17T04:17:55.978Z,0.00
2023-01-17T04:18:55.975Z,0.00
2023-01-17T04:19:55.881Z,0.00
2023-01-17T04:20:56.056Z,0.00
2023-01-17T04:21:56.100Z,0.00
2023-01-17T04:22:55.060Z,0.00
2023-01-17T04:23:56.014Z,0.00
2023-01-17T04:24:55.911Z,0.00
2023-01-17T04:25:55.291Z,0.00
2023-01-17T04:26:55.220Z,0.00
2023-01-17T04:27:56.341Z,0.00
2023-01-17T04:28:55.786Z,0.00
2023-01-17T04:29:56.215Z,0.00
2023-01-17T04:30:55.045Z,0.00
2023-01-17T04:31:55.414Z,0.00
2023-01-17T04:32:55.023Z,0.00
2023-01-17T04:33:54.947Z,0.00
2023-01-17T04:34:54.946Z,0.00
2023-01-17T04:35:54.994Z,0.00
2023-01-17T04:36:54.885Z,0.00
2023-01-17T04:37:55.107Z,0.00
2023-01-17T04:38:54.867Z,0.00
2023-01-17T04:39:54.894Z,0.00
2023-01-17T04:40:55.276Z,0.00
2023-01-17T04:41:54.875Z,0.00
2023-01-17T04:42:54.927Z,0.00
2023-01-17T04:43:54.992Z,0.00
2023-01-17T04:44:54.799Z,0.00
2023-01-17T04:45:54.874Z,0.00
2023-01-17T04:46:54.912Z,0.00
2023-01-17T04:47:55.219Z,0.00
2023-01-17T04:48:54.746Z,0.00
2023-01-17T04:49:54.745Z,0.00
2023-01-17T04:50:54.805Z,0.00
2023-01-17T04:51:54.701Z,0.00
2023-01-17T04:52:54.914Z,0.00
2023-01-17T04:53:54.975Z,0.00
2023-01-17T04:54:55.034Z,0.00
2023-01-17T04:55:55.007Z,0.00
2023-01-17T04:56:55.154Z,0.00
2023-01-17T04:57:55.207Z,0.00
2023-01-17T04:58:55.271Z,0.00
2023-01-17T04:59:55.335Z,0.00
2023-01-17T05:00:54.618Z,0.00
2023-01-17T05:01:54.647Z,0.00
2023-01-17T05:02:54.687Z,0.00
2023-01-17T05:03:54.657Z,0.00
2023-01-17T05:04:54.712Z,0.00
2023-01-17T05:05:54.830Z,0.00
2023-01-17T05:06:54.823Z,0.00
2023-01-17T05:07:54.894Z,0.00
2023-01-17T05:08:54.928Z,0.00
2023-01-17T05:09:54.985Z,0.00
2023-01-17T05:10:55.053Z,0.00
2023-01-17T05:11:55.093Z,0.00
2023-01-17T05:12:55.155Z,0.00
2023-01-17T05:13:54.979Z,0.00
2023-01-17T05:14:55.215Z,0.00
2023-01-17T05:15:55.149Z,0.00
2023-01-17T05:16:55.222Z,0.00
2023-01-17T05:17:54.356Z,0.00
2023-01-17T05:18:55.097Z,0.00
2023-01-17T05:19:55.241Z,0.00
2023-01-17T05:20:55.022Z,0.00
2023-01-17T05:21:55.039Z,0.00
2023-01-17T05:22:55.199Z,0.00
2023-01-17T05:23:55.111Z,0.00
2023-01-17T05:24:54.258Z,0.00
2023-01-17T05:25:54.289Z,0.00
2023-01-17T05:26:54.246Z,0.00
2023-01-17T05:27:58.357Z,0.00
2023-01-17T05:28:54.237Z,0.00
2023-01-17T05:29:54.238Z,0.00
2023-01-17T05:30:54.276Z,0.00
2023-01-17T05:31:54.179Z,0.00
2023-01-17T05:32:54.285Z,0.00
2023-01-17T05:33:54.245Z,0.00
2023-01-17T05:34:54.248Z,0.00
2023-01-17T05:35:54.515Z,0.00
2023-01-17T05:36:54.242Z,0.00
2023-01-17T05:37:54.142Z,0.00
2023-01-17T05:38:54.248Z,0.00
2023-01-17T05:39:54.258Z,0.00
2023-01-17T05:40:54.262Z,0.00
2023-01-17T05:41:54.247Z,0.00
2023-01-17T05:42:54.247Z,0.00
2023-01-17T05:43:54.253Z,0.00
2023-01-17T05:44:54.064Z,0.00
2023-01-17T05:45:54.457Z,0.00
2023-01-17T05:46:54.259Z,0.00
2023-01-17T05:47:54.188Z,0.00
2023-01-17T05:48:54.232Z,0.00
2023-01-17T05:49:54.055Z,0.00
2023-01-17T05:50:54.221Z,0.00
2023-01-17T05:51:54.995Z,0.00
2023-01-17T05:52:54.248Z,0.00
2023-01-17T05:53:53.884Z,0.00
2023-01-17T05:54:54.416Z,0.00
2023-01-17T05:55:54.174Z,0.00
2023-01-17T05:56:54.748Z,0.00
2023-01-17T05:57:54.243Z,0.00
2023-01-17T05:58:54.249Z,0.00
2023-01-17T05:59:53.814Z,0.00
2023-01-17T06:00:54.041Z,0.00
2023-01-17T06:01:53.892Z,0.00
2023-01-17T06:02:53.850Z,0.00
2023-01-17T06:03:54.052Z,0.00
2023-01-17T06:04:54.141Z,0.00
2023-01-17T06:05:53.776Z,0.00
2023-01-17T06:06:53.761Z,0.00
2023-01-17T06:07:53.982Z,0.00
2023-01-17T06:08:54.258Z,0.00
2023-01-17T06:09:54.044Z,0.00
2023-01-17T06:10:54.260Z,0.00
2023-01-17T06:11:54.304Z,0.00
2023-01-17T06:12:54.471Z,0.00
2023-01-17T06:13:53.642Z,0.00
2023-01-17T06:14:54.251Z,0.00
2023-01-17T06:15:54.176Z,0.00
2023-01-17T06:16:54.258Z,0.00
2023-01-17T06:17:53.597Z,0.00
2023-01-17T06:18:54.253Z,0.00
2023-01-17T06:19:54.258Z,0.00
2023-01-17T06:20:53.791Z,0.00
2023-01-17T06:21:53.619Z,0.00
2023-01-17T06:22:54.277Z,0.00
2023-01-17T06:23:54.278Z,0.00
2023-01-17T06:24:53.490Z,0.00
2023-01-17T06:25:54.296Z,0.00
2023-01-17T06:26:54.089Z,0.00
2023-01-17T06:27:53.470Z,0.00
2023-01-17T06:28:53.810Z,0.00
2023-01-17T06:29:53.497Z,0.00
2023-01-17T06:30:53.600Z,0.00
2023-01-17T06:31:53.616Z,0.00
2023-01-17T06:32:53.610Z,0.00
2023-01-17T06:33:53.788Z,0.00
2023-01-17T06:34:53.682Z,0.00
2023-01-17T06:35:53.855Z,0.00
2023-01-17T06:36:53.845Z,0.00
2023-01-17T06:37:53.646Z,0.00
2023-01-17T06:38:53.957Z,0.00
2023-01-17T06:39:53.756Z,0.00
2023-01-17T06:40:54.076Z,0.00
2023-01-17T06:41:54.025Z,0.00
2023-01-17T06:42:54.184Z,0.00
2023-01-17T06:43:54.204Z,0.00
2023-01-17T06:44:54.292Z,0.00
2023-01-17T06:45:53.285Z,0.00
2023-01-17T06:46:53.338Z,1.00
2023-01-17T06:47:53.958Z,0.00
2023-01-17T06:48:53.205Z,0.00
2023-01-17T06:49:54.017Z,1.00
2023-01-17T06:50:53.730Z,1.00
2023-01-17T06:51:53.411Z,0.00
2023-01-17T06:52:53.991Z,0.00
2023-01-17T06:53:53.685Z,2.00
2023-01-17T06:54:53.815Z,2.00
2023-01-17T06:55:53.944Z,2.00
2023-01-17T06:56:53.264Z,1.00
2023-01-17T06:57:53.886Z,1.00
2023-01-17T06:58:53.929Z,0.00
2023-01-17T06:59:53.823Z,1.00
2023-01-17T07:00:53.109Z,2.00
2023-01-17T07:01:52.979Z,7.00
2023-01-17T07:02:53.081Z,5.00
2023-01-17T07:03:53.176Z,4.00
2023-01-17T07:04:52.957Z,4.00
2023-01-17T07:05:52.974Z,2.00
2023-01-17T07:06:53.023Z,3.00
2023-01-17T07:07:52.902Z,6.00
2023-01-17T07:08:52.860Z,9.00
2023-01-17T07:09:52.911Z,11.00
2023-01-17T07:10:52.933Z,5.00
2023-01-17T07:11:57.070Z,11.00
2023-01-17T07:12:53.041Z,11.00
2023-01-17T07:13:53.108Z,16.00
2023-01-17T07:14:52.970Z,13.00
2023-01-17T07:15:53.266Z,24.00
2023-01-17T07:16:53.273Z,27.00
2023-01-17T07:17:53.330Z,22.00
2023-01-17T07:18:53.407Z,22.00
2023-01-17T07:19:53.520Z,26.00
2023-01-17T07:20:53.620Z,37.00
2023-01-17T07:21:53.508Z,44.00
2023-01-17T07:22:53.424Z,48.00
2023-01-17T07:23:53.571Z,48.00
2023-01-17T07:24:52.728Z,44.00
2023-01-17T07:25:52.722Z,44.00
2023-01-17T07:26:52.642Z,48.00
2023-01-17T07:27:52.638Z,59.00
2023-01-17T07:28:52.741Z,72.00
2023-01-17T07:29:54.218Z,61.00
2023-01-17T07:30:52.860Z,75.00
2023-01-17T07:31:52.567Z,79.00
2023-01-17T07:32:52.566Z,80.00
2023-01-17T07:33:52.568Z,76.00
2023-01-17T07:34:53.017Z,84.00
2023-01-17T07:35:53.009Z,83.00
2023-01-17T07:36:53.206Z,80.00
2023-01-17T07:37:52.498Z,77.00
2023-01-17T07:38:52.477Z,80.00
2023-01-17T07:39:52.503Z,80.00
2023-01-17T07:40:52.536Z,111.00
2023-01-17T07:41:52.475Z,132.00
2023-01-17T07:42:52.525Z,144.00
2023-01-17T07:43:52.687Z,150.00
2023-01-17T07:44:52.534Z,154.00
2023-01-17T07:45:52.541Z,157.00
2023-01-17T07:46:52.481Z,150.00
2023-01-17T07:47:52.566Z,196.00
2023-01-17T07:48:52.356Z,183.00
2023-01-17T07:49:52.588Z,155.00
2023-01-17T07:50:52.575Z,180.00
2023-01-17T07:51:52.364Z,186.00
2023-01-17T07:52:52.486Z,288.00
2023-01-17T07:53:52.501Z,258.00
2023-01-17T07:54:52.493Z,251.00
2023-01-17T07:55:52.504Z,245.00
2023-01-17T07:56:52.303Z,274.00
2023-01-17T07:57:52.245Z,281.00
2023-01-17T07:58:52.222Z,283.00
2023-01-17T07:59:52.422Z,311.00
2023-01-17T08:00:52.265Z,356.00
2023-01-17T08:01:52.656Z,359.00
2023-01-17T08:02:52.643Z,347.00
2023-01-17T08:03:52.183Z,296.00
2023-01-17T08:04:52.525Z,280.00
2023-01-17T08:05:52.225Z,256.00
2023-01-17T08:06:52.637Z,264.00
2023-01-17T08:07:52.282Z,506.00
2023-01-17T08:08:52.480Z,476.00
2023-01-17T08:09:52.094Z,319.00
2023-01-17T08:10:52.490Z,446.00
2023-01-17T08:11:52.511Z,469.00
2023-01-17T08:12:52.516Z,565.00
2023-01-17T08:13:52.038Z,395.00
2023-01-17T08:14:52.532Z,297.00
2023-01-17T08:15:52.035Z,255.00
2023-01-17T08:16:52.541Z,205.00
2023-01-17T08:17:52.571Z,195.00
2023-01-17T08:18:52.044Z,172.00
2023-01-17T08:19:52.558Z,177.00
2023-01-17T08:20:52.561Z,175.00
2023-01-17T08:21:52.576Z,111.00
2023-01-17T08:22:52.574Z,218.00
2023-01-17T08:23:52.087Z,175.00
2023-01-17T08:24:52.491Z,273.00
2023-01-17T08:25:51.889Z,328.00
2023-01-17T08:26:51.895Z,366.00
2023-01-17T08:27:51.999Z,320.00
2023-01-17T08:28:51.845Z,310.00
2023-01-17T08:29:52.023Z,355.00
2023-01-17T08:30:52.118Z,315.00
2023-01-17T08:31:52.226Z,244.00
2023-01-17T08:32:52.228Z,226.00
2023-01-17T08:33:51.816Z,364.00
2023-01-17T08:34:52.355Z,311.00
2023-01-17T08:35:51.766Z,314.00
2023-01-17T08:36:51.767Z,336.00
2023-01-17T08:37:51.754Z,431.00
2023-01-17T08:38:51.745Z,421.00
2023-01-17T08:39:51.762Z,302.00
2023-01-17T08:40:52.095Z,214.00
2023-01-17T08:41:52.485Z,252.00
2023-01-17T08:42:52.394Z,299.00
2023-01-17T08:43:52.560Z,237.00
2023-01-17T08:44:52.479Z,349.00
2023-01-17T08:45:52.412Z,148.00
2023-01-17T08:46:52.516Z,260.00
2023-01-17T08:47:52.433Z,543.00
2023-01-17T08:48:52.322Z,402.00
2023-01-17T08:49:51.575Z,321.00
2023-01-17T08:50:52.384Z,213.00
2023-01-17T08:51:51.565Z,319.00
2023-01-17T08:52:52.061Z,352.00
2023-01-17T08:53:52.353Z,359.00
2023-01-17T08:54:52.084Z,224.00
2023-01-17T08:55:51.505Z,318.00
2023-01-17T08:56:51.563Z,562.00
2023-01-17T08:57:51.574Z,547.00
2023-01-17T08:58:51.673Z,453.00
2023-01-17T08:59:51.685Z,441.00
2023-01-17T09:00:51.876Z,344.00
2023-01-17T09:01:51.540Z,276.00
2023-01-17T09:02:51.903Z,470.00
2023-01-17T09:03:51.972Z,423.00
2023-01-17T09:04:51.831Z,440.00
2023-01-17T09:05:52.012Z,486.00
2023-01-17T09:06:52.134Z,554.00
2023-01-17T09:07:51.363Z,424.00
2023-01-17T09:08:52.165Z,287.00
2023-01-17T09:09:52.112Z,634.00
2023-01-17T09:10:51.328Z,670.00
2023-01-17T09:11:52.188Z,545.00
2023-01-17T09:12:52.438Z,549.00
2023-01-17T09:13:52.038Z,679.00
2023-01-17T09:14:52.138Z,649.00
2023-01-17T09:15:52.039Z,849.00
2023-01-17T09:16:52.530Z,907.00
2023-01-17T09:17:51.224Z,661.00
2023-01-17T09:18:51.240Z,526.00
2023-01-17T09:19:52.160Z,824.00
2023-01-17T09:20:52.070Z,762.00
2023-01-17T09:21:51.189Z,547.00
2023-01-17T09:22:51.218Z,459.00
2023-01-17T09:23:51.330Z,832.00
2023-01-17T09:24:51.318Z,672.00
2023-01-17T09:25:51.118Z,551.00
2023-01-17T09:26:51.177Z,743.00
2023-01-17T09:27:51.209Z,777.00
2023-01-17T09:28:51.259Z,790.00
2023-01-17T09:29:51.062Z,592.00
2023-01-17T09:30:51.110Z,508.00
2023-01-17T09:31:51.188Z,500.00
2023-01-17T09:32:51.197Z,593.00
2023-01-17T09:33:51.259Z,743.00
2023-01-17T09:34:51.395Z,732.00
2023-01-17T09:35:51.383Z,840.00
2023-01-17T09:36:51.427Z,986.00
2023-01-17T09:37:51.513Z,1239.00
2023-01-17T09:38:51.237Z,1451.00
2023-01-17T09:39:51.062Z,1432.00
2023-01-17T09:40:51.023Z,1286.00
2023-01-17T09:41:51.725Z,1157.00
2023-01-17T09:42:51.760Z,1156.00
2023-01-17T09:43:51.834Z,1235.00
2023-01-17T09:44:51.811Z,1023.00
2023-01-17T09:45:51.757Z,1196.00
2023-01-17T09:46:50.989Z,995.00
2023-01-17T09:47:50.855Z,867.00
2023-01-17T09:48:50.827Z,801.00
2023-01-17T09:49:51.584Z,931.00
2023-01-17T09:50:51.745Z,817.00
2023-01-17T09:51:51.655Z,785.00
2023-01-17T09:52:51.564Z,1019.00
2023-01-17T09:53:51.717Z,1010.00
2023-01-17T09:54:52.221Z,837.00
2023-01-17T09:55:50.724Z,723.00
2023-01-17T09:56:50.812Z,714.00
2023-01-17T09:57:50.837Z,642.00
2023-01-17T09:58:50.897Z,771.00
2023-01-17T10:00:02.680Z,825.00
2023-01-17T10:00:52.536Z,731.00
2023-01-17T10:01:51.169Z,669.00
2023-01-17T10:02:50.873Z,753.00
2023-01-17T10:03:51.285Z,942.00
2023-01-17T10:04:51.279Z,1038.00
2023-01-17T10:05:50.693Z,927.00
2023-01-17T10:06:51.332Z,1038.00
2023-01-17T10:07:51.401Z,1080.00
2023-01-17T10:08:51.302Z,814.00
2023-01-17T10:09:51.510Z,958.00
2023-01-17T10:10:51.362Z,793.00
2023-01-17T10:11:50.760Z,691.00
2023-01-17T10:12:50.549Z,675.00
2023-01-17T10:13:50.853Z,627.00
2023-01-17T10:14:51.769Z,891.00
2023-01-17T10:15:51.401Z,997.00
2023-01-17T10:16:51.342Z,780.00
2023-01-17T10:17:51.208Z,599.00
2023-01-17T10:18:50.453Z,751.00
2023-01-17T10:19:50.557Z,910.00
2023-01-17T10:20:50.528Z,870.00
2023-01-17T10:21:51.270Z,814.00
2023-01-17T10:22:51.254Z,1046.00
2023-01-17T10:23:51.139Z,1292.00
2023-01-17T10:24:50.359Z,1225.00
2023-01-17T10:25:50.391Z,966.00
2023-01-17T10:26:50.435Z,1061.00
2023-01-17T10:27:50.470Z,1167.00
2023-01-17T10:28:50.528Z,1229.00
2023-01-17T10:29:50.623Z,1316.00
2023-01-17T10:30:50.695Z,1228.00
2023-01-17T10:31:50.690Z,1093.00
2023-01-17T10:32:50.984Z,1193.00
2023-01-17T10:33:50.812Z,1289.00
2023-01-17T10:34:50.849Z,1223.00
2023-01-17T10:35:50.756Z,1140.00
2023-01-17T10:36:50.970Z,1222.00
2023-01-17T10:37:50.271Z,1275.00
2023-01-17T10:38:50.989Z,1173.00
2023-01-17T10:39:51.200Z,1210.00
2023-01-17T10:40:51.228Z,1215.00
2023-01-17T10:41:51.309Z,1229.00
2023-01-17T10:42:50.190Z,1133.00
2023-01-17T10:43:51.022Z,1131.00
2023-01-17T10:44:50.195Z,1164.00
2023-01-17T10:45:50.854Z,1210.00
2023-01-17T10:46:50.773Z,1392.00
2023-01-17T10:47:50.892Z,1463.00
2023-01-17T10:48:50.798Z,1311.00
2023-01-17T10:49:50.944Z,1340.00
2023-01-17T10:50:50.852Z,1296.00
2023-01-17T10:51:50.778Z,1132.00
2023-01-17T10:52:51.303Z,1009.00
2023-01-17T10:53:50.150Z,999.00
2023-01-17T10:54:49.999Z,1018.00
2023-01-17T10:55:50.080Z,1303.00
2023-01-17T10:56:50.052Z,1454.00
2023-01-17T10:57:50.072Z,1396.00
2023-01-17T10:58:50.173Z,974.00
2023-01-17T10:59:50.303Z,1312.00
2023-01-17T11:00:50.273Z,1113.00
2023-01-17T11:01:51.300Z,896.00
2023-01-17T11:02:50.836Z,935.00
2023-01-17T11:03:50.441Z,1148.00
2023-01-17T11:04:49.861Z,1229.00
2023-01-17T11:05:50.580Z,1279.00
2023-01-17T11:06:58.139Z,1470.00
2023-01-17T11:07:51.526Z,1497.00
2023-01-17T11:08:50.272Z,1405.00
2023-01-17T11:09:50.566Z,1475.00
2023-01-17T11:10:50.724Z,1699.00
2023-01-17T11:11:50.990Z,1949.00
2023-01-17T11:12:50.535Z,1982.00
2023-01-17T11:13:50.696Z,2367.00
2023-01-17T11:14:50.602Z,2389.00
2023-01-17T11:15:50.536Z,1939.00
2023-01-17T11:16:50.413Z,3123.00
2023-01-17T11:17:50.560Z,893.00
2023-01-17T11:18:50.488Z,3495.00
2023-01-17T11:19:50.628Z,2373.00
2023-01-17T11:20:50.537Z,938.00
2023-01-17T11:21:50.429Z,2292.00
2023-01-17T11:22:50.349Z,3781.00
2023-01-17T11:23:49.623Z,2381.00
2023-01-17T11:24:49.658Z,1997.00
2023-01-17T11:25:49.719Z,2122.00
2023-01-17T11:26:49.862Z,2235.00
2023-01-17T11:27:49.854Z,2175.00
2023-01-17T11:28:49.900Z,2162.00
2023-01-17T11:29:49.988Z,2125.00
2023-01-17T11:30:50.060Z,1827.00
2023-01-17T11:31:50.067Z,1714.00
2023-01-17T11:32:50.135Z,1838.00
2023-01-17T11:33:50.190Z,1876.00
2023-01-17T11:34:50.217Z,1998.00
2023-01-17T11:35:49.497Z,1891.00
2023-01-17T11:36:50.288Z,1833.00
2023-01-17T11:37:50.199Z,2069.00
2023-01-17T11:38:49.415Z,2143.00
2023-01-17T11:39:50.259Z,2090.00
2023-01-17T11:40:50.211Z,2286.00
2023-01-17T11:41:50.433Z,2319.00
2023-01-17T11:42:50.205Z,2165.00
2023-01-17T11:43:49.359Z,1837.00
2023-01-17T11:44:49.437Z,1634.00
2023-01-17T11:45:49.486Z,1881.00
2023-01-17T11:46:49.546Z,1880.00
2023-01-17T11:47:49.299Z,1697.00
2023-01-17T11:48:49.266Z,1765.00
2023-01-17T11:49:49.425Z,1059.00
2023-01-17T11:50:49.483Z,1363.00
2023-01-17T11:51:49.248Z,2334.00
2023-01-17T11:52:49.277Z,3400.00
2023-01-17T11:53:49.314Z,1585.00
2023-01-17T11:54:49.377Z,2495.00
2023-01-17T11:55:49.425Z,2030.00
2023-01-17T11:56:49.491Z,1092.00
2023-01-17T11:57:49.547Z,1672.00
2023-01-17T11:58:49.603Z,2608.00
2023-01-17T11:59:49.656Z,1803.00
2023-01-17T12:00:49.140Z,1415.00
2023-01-17T12:01:49.874Z,1214.00
2023-01-17T12:02:49.563Z,1109.00
2023-01-17T12:03:49.901Z,1076.00
2023-01-17T12:04:49.937Z,1079.00
2023-01-17T12:05:49.795Z,1075.00
2023-01-17T12:06:57.741Z,1060.00
2023-01-17T12:07:50.119Z,1043.00
2023-01-17T12:08:49.777Z,1061.00
2023-01-17T12:09:49.934Z,1102.00
2023-01-17T12:10:49.843Z,1128.00
2023-01-17T12:11:49.737Z,1162.00
2023-01-17T12:12:50.243Z,1177.00
2023-01-17T12:13:49.793Z,1124.00
2023-01-17T12:14:49.027Z,1207.00
2023-01-17T12:15:49.922Z,1127.00
2023-01-17T12:16:49.462Z,1046.00
2023-01-17T12:17:49.861Z,1027.00
2023-01-17T12:18:48.922Z,1055.00
2023-01-17T12:19:49.732Z,1083.00
2023-01-17T12:20:48.864Z,1090.00
2023-01-17T12:21:48.890Z,1082.00
2023-01-17T12:22:48.953Z,1088.00
2023-01-17T12:23:49.004Z,1093.00
2023-01-17T12:24:49.067Z,1094.00
2023-01-17T12:25:49.014Z,1092.00
2023-01-17T12:26:49.199Z,1081.00
2023-01-17T12:27:48.830Z,1056.00
2023-01-17T12:28:50.215Z,1055.00
2023-01-17T12:29:49.339Z,1059.00
2023-01-17T12:30:49.395Z,331.00
2023-01-17T12:31:49.439Z,1255.00
2023-01-17T12:32:49.500Z,1659.00
2023-01-17T12:33:49.572Z,1135.00
2023-01-17T12:34:49.582Z,1161.00
2023-01-17T12:35:49.072Z,432.00
2023-01-17T12:36:49.645Z,1054.00
2023-01-17T12:38:00.292Z,1377.00
2023-01-17T12:38:49.819Z,1811.00
2023-01-17T12:39:49.350Z,1724.00
2023-01-17T12:40:49.540Z,1202.00
2023-01-17T12:41:49.457Z,1082.00
2023-01-17T12:42:49.496Z,1092.00
2023-01-17T12:43:48.585Z,1106.00
2023-01-17T12:44:49.379Z,638.00
2023-01-17T12:45:49.021Z,973.00
2023-01-17T12:46:49.500Z,1811.00
2023-01-17T12:47:49.035Z,1268.00
2023-01-17T12:48:49.260Z,1410.00
2023-01-17T12:49:48.488Z,1360.00
2023-01-17T12:50:48.486Z,1179.00
2023-01-17T12:51:48.545Z,1098.00